METAR rapporter

 

EKCH - Copenhagen/Kastr, Denmark
Afstand til vejrstation: SØ 11km
Opdateret: 15/08/2020 05:50
Let tåge, Delvist skyet
Let tåge, Delvist skyet
 Vind retning Ø
Vind: Ø 4 km/h
Temperatur: 17°C
Dugpunkt: 17°C
Fugtighed: 100%
Barometer: 1015 hPa
Oversigt: Let tåge
Skyer: Delvist skyet
Sigtbarhed: 10 km
2020/08/15 03:50 EKCH 150350Z 09002KT 9999 MIFG NSC 17/17 Q1015 TEMPO 3000 BR
EKRK - Copenhagen/Roski, Denmark
Afstand til vejrstation: VSV 29km
Opdateret: 15/08/2020 05:50
Spredt tåge, Få skyer
Spredt tåge, Få skyer
 Vind retning calm
Vind: Vindstille
Temperatur: 12°C
Dugpunkt: 12°C
Fugtighed: 100%
Barometer: 1015 hPa
Oversigt: Spredt tåge
Skyer: Få skyer
Sigtbarhed: 5 km
Sky detaljer: Få skyer 183 m
2020/08/15 03:50 EKRK 150350Z AUTO 00000KT 5000 BCFG FEW006/// 12/12 Q1015